Date,TemperatureHighF,TemperatureAvgF,TemperatureLowF,DewpointHighF,DewpointAvgF,DewpointLowF,HumidityHigh,HumidityAvg,HumidityLow,PressureMaxIn,PressureMinIn,WindSpeedMaxMPH,WindSpeedAvgMPH,GustSpeedMaxMPH,PrecipitationSumIn
2013-9-1,97.2,80.4,70.9,76.7,69.4,62.5,100,73,34,29.83,29.74,11,2,11,0.00
2013-9-2,97.2,79.6,70.3,74.9,69.1,63.5,96,73,36,29.85,29.74,15,2,15,0.00
2013-9-3,90.3,78.9,72.0,76.6,72.5,68.6,100,82,52,29.85,29.77,11,1,11,0.00
2013-9-4,99.7,81.4,72.3,78.9,70.3,62.4,100,73,31,29.94,29.83,16,1,16,0.00
2013-9-5,99.3,82.1,71.6,73.7,68.5,61.8,96,68,31,29.97,29.85,8,1,8,0.00
2013-9-6,93.9,77.0,70.9,74.0,69.4,62.1,96,80,43,29.91,29.83,17,1,17,0.00
2013-9-7,94.8,78.0,67.6,75.0,66.7,58.1,100,73,33,29.88,29.80,13,2,13,0.00
2013-9-8,96.1,78.7,68.7,75.2,64.6,54.7,100,68,27,29.85,29.77,11,1,11,0.00
2013-9-9,95.4,78.1,67.8,72.3,64.3,55.9,97,67,29,29.91,29.83,13,1,13,0.00
2013-9-10,94.3,78.8,68.2,71.6,64.8,56.5,96,66,29,29.97,29.88,15,2,15,0.00
2013-9-11,93.7,79.3,71.2,71.3,67.3,61.7,91,70,38,29.97,29.88,15,2,15,0.00
2013-9-12,93.7,78.1,70.5,77.7,69.9,64.7,100,78,44,29.91,29.74,9,1,9,0.00
2013-9-13,98.4,80.3,69.8,74.4,66.2,56.8,97,68,28,29.77,29.62,13,1,13,0.00
2013-9-14,99.5,81.4,69.8,72.1,66.1,58.9,96,65,29,29.85,29.68,10,1,10,0.00
2013-9-15,96.8,81.4,72.0,75.9,69.1,62.9,96,70,36,29.94,29.83,14,2,14,3.35
2013-9-16,98.4,81.6,72.5,75.3,68.5,58.1,97,69,29,29.94,29.83,12,2,12,0.00
2013-9-17,96.6,79.5,70.9,77.4,68.9,62.1,100,74,36,29.94,29.85,16,2,16,0.00
2013-9-18,88.5,76.3,69.8,72.0,68.2,60.9,92,77,44,29.94,29.85,17,3,17,0.00
2013-9-19,91.4,75.7,69.1,72.9,68.7,63.4,100,81,42,29.94,29.85,15,2,15,0.16
2013-9-20,99.1,76.1,66.9,73.9,66.3,61.0,100,76,33,29.91,29.77,10,1,10,0.00
2013-9-21,97.5,78.0,66.9,73.2,64.6,56.8,100,68,29,29.80,29.62,9,1,9,0.00
2013-9-22,81.7,74.9,71.8,73.4,70.5,67.1,97,87,68,29.71,29.59,12,1,12,0.20
2013-9-23,80.8,74.1,71.2,75.5,72.3,68.2,100,95,77,29.80,29.68,11,1,11,0.28
2013-9-24,84.6,75.3,72.7,77.7,74.1,72.7,100,96,72,29.80,29.68,8,0,8,0.24
2013-9-25,85.8,76.0,70.7,73.6,71.8,67.6,100,88,60,29.68,29.59,14,2,14,0.04
2013-9-26,87.6,76.0,69.6,77.2,69.6,63.9,100,82,52,29.77,29.59,14,2,14,0.00
2013-9-27,86.0,73.3,66.2,65.6,63.7,60.9,91,73,46,29.85,29.74,21,3,21,0.00
2013-9-28,78.3,71.5,68.2,70.2,65.6,60.5,97,82,63,29.91,29.80,14,3,14,0.04
2013-9-29,93.9,73.7,66.0,66.4,63.7,58.5,95,74,39,29.88,29.77,11,3,11,0.00
2013-9-30,86.7,73.5,67.1,68.9,63.7,59.7,96,73,45,29.88,29.80,13,2,13,0.00